createdAt,value
2019-05-18T00:01:40.272Z,12.79
2019-05-18T00:04:09.632Z,12.80
2019-05-18T00:06:38.715Z,12.78
2019-05-18T00:09:07.661Z,12.77
2019-05-18T00:11:37.367Z,12.75
2019-05-18T00:14:08.108Z,12.73
2019-05-18T00:16:37.502Z,12.71
2019-05-18T00:19:06.397Z,12.71
2019-05-18T00:21:35.811Z,12.73
2019-05-18T00:24:04.718Z,12.74
2019-05-18T00:26:34.841Z,12.74
2019-05-18T00:29:04.477Z,12.73
2019-05-18T00:31:34.077Z,12.72
2019-05-18T00:34:04.794Z,12.67
2019-05-18T00:36:34.114Z,12.66
2019-05-18T00:39:02.944Z,12.63
2019-05-18T00:41:31.837Z,12.62
2019-05-18T00:44:00.736Z,12.58
2019-05-18T00:46:30.168Z,12.53
2019-05-18T00:49:00.114Z,12.49
2019-05-18T00:51:29.567Z,12.45
2019-05-18T00:53:58.420Z,12.40
2019-05-18T00:56:27.242Z,12.35
2019-05-18T00:58:56.037Z,12.32
2019-05-18T01:01:24.871Z,12.27
2019-05-18T01:03:53.923Z,12.23
2019-05-18T01:06:24.037Z,12.20
2019-05-18T01:08:52.922Z,12.15
2019-05-18T01:11:21.779Z,12.11
2019-05-18T01:13:50.686Z,12.04
2019-05-18T01:16:19.754Z,12.00
2019-05-18T01:18:49.715Z,11.94
2019-05-18T01:21:18.623Z,11.89
2019-05-18T01:23:49.492Z,11.83
2019-05-18T01:26:19.135Z,11.75
2019-05-18T01:28:48.855Z,11.70
2019-05-18T01:31:18.437Z,11.67
2019-05-18T01:33:49.067Z,11.62
2019-05-18T01:36:18.647Z,11.60
2019-05-18T01:38:48.177Z,11.56
2019-05-18T01:41:17.684Z,11.53
2019-05-18T01:43:47.362Z,11.51
2019-05-18T01:46:16.844Z,11.47
2019-05-18T01:48:48.712Z,11.45
2019-05-18T01:51:17.978Z,11.43
2019-05-18T01:53:46.846Z,11.41
2019-05-18T01:56:16.324Z,11.38
2019-05-18T01:58:46.059Z,11.35
2019-05-18T02:01:15.371Z,11.33
2019-05-18T02:03:44.238Z,11.31
2019-05-18T02:06:13.096Z,11.27
2019-05-18T02:08:43.403Z,11.26
2019-05-18T02:11:12.990Z,11.22
2019-05-18T02:13:43.511Z,11.20
2019-05-18T02:16:14.581Z,11.18
2019-05-18T02:18:43.397Z,11.16
2019-05-18T02:21:12.732Z,11.12
2019-05-18T02:23:42.489Z,11.12
2019-05-18T02:26:12.529Z,11.10
2019-05-18T02:28:42.588Z,11.07
2019-05-18T02:31:13.112Z,11.03
2019-05-18T02:33:43.363Z,11.00
2019-05-18T02:36:12.260Z,10.96
2019-05-18T02:38:42.091Z,10.91
2019-05-18T02:41:10.943Z,10.88
2019-05-18T02:43:39.810Z,10.84
2019-05-18T02:46:08.623Z,10.79
2019-05-18T02:48:48.747Z,10.76
2019-05-18T02:51:11.103Z,10.74
2019-05-18T02:53:36.430Z,10.70
2019-05-18T02:56:07.152Z,10.66
2019-05-18T02:58:36.880Z,10.62
2019-05-18T03:01:05.873Z,10.59
2019-05-18T03:03:36.385Z,10.54
2019-05-18T03:06:06.109Z,10.52
2019-05-18T03:08:35.583Z,10.48
2019-05-18T03:11:05.388Z,10.45
2019-05-18T03:13:34.768Z,10.41
2019-05-18T03:16:03.625Z,10.39
2019-05-18T03:18:33.987Z,10.38
2019-05-18T03:21:02.807Z,10.35
2019-05-18T03:23:32.734Z,10.33
2019-05-18T03:26:02.317Z,10.31
2019-05-18T03:28:32.459Z,10.29
2019-05-18T03:31:01.357Z,10.29
2019-05-18T03:33:30.753Z,10.29
2019-05-18T03:36:00.483Z,10.29
2019-05-18T03:38:36.776Z,10.30
2019-05-18T03:41:06.564Z,10.32
2019-05-18T03:43:36.055Z,10.36
2019-05-18T03:46:06.021Z,10.39
2019-05-18T03:48:36.710Z,10.43
2019-05-18T03:51:06.927Z,10.45
2019-05-18T03:53:36.375Z,10.47
2019-05-18T03:56:05.216Z,10.50
2019-05-18T03:58:35.213Z,10.52
2019-05-18T04:01:04.253Z,10.58
2019-05-18T04:03:33.873Z,10.63
2019-05-18T04:06:04.793Z,10.69
2019-05-18T04:08:34.441Z,10.79
2019-05-18T04:11:04.194Z,10.93
2019-05-18T04:13:33.357Z,11.05
2019-05-18T04:16:02.881Z,11.16
2019-05-18T04:18:33.533Z,11.27
2019-05-18T04:21:05.530Z,11.45
2019-05-18T04:23:34.591Z,11.68
2019-05-18T04:26:03.626Z,11.85
2019-05-18T04:28:33.288Z,11.93
2019-05-18T04:31:02.705Z,11.99
2019-05-18T04:33:31.512Z,12.02
2019-05-18T04:36:01.229Z,12.11
2019-05-18T04:38:30.759Z,12.15
2019-05-18T04:41:00.809Z,12.20
2019-05-18T04:43:30.384Z,12.25
2019-05-18T04:46:00.101Z,12.24
2019-05-18T04:48:30.841Z,12.53
2019-05-18T04:51:00.754Z,13.46
2019-05-18T04:53:29.913Z,13.99
2019-05-18T04:56:00.380Z,13.99
2019-05-18T04:58:30.129Z,13.74
2019-05-18T05:00:59.725Z,13.67
2019-05-18T05:03:29.319Z,13.93
2019-05-18T05:05:58.213Z,14.22
2019-05-18T05:08:28.235Z,14.43
2019-05-18T05:10:57.068Z,15.56
2019-05-18T05:13:26.477Z,17.16
2019-05-18T05:15:55.263Z,18.74
2019-05-18T05:18:25.438Z,19.91
2019-05-18T05:20:54.258Z,21.19
2019-05-18T05:23:24.053Z,22.17
2019-05-18T05:25:52.928Z,22.43
2019-05-18T05:28:21.861Z,22.80
2019-05-18T05:30:52.741Z,23.15
2019-05-18T05:33:22.559Z,23.56
2019-05-18T05:35:52.435Z,23.81
2019-05-18T05:38:22.542Z,24.32
2019-05-18T05:40:52.288Z,24.32
2019-05-18T05:43:21.161Z,24.78
2019-05-18T05:45:50.249Z,25.16
2019-05-18T05:48:19.064Z,25.39
2019-05-18T05:50:48.596Z,26.01
2019-05-18T05:53:18.060Z,26.67
2019-05-18T05:55:47.955Z,27.37
2019-05-18T05:58:17.433Z,27.74
2019-05-18T06:00:47.550Z,27.93
2019-05-18T06:03:17.490Z,27.96
2019-05-18T06:05:47.148Z,28.58
2019-05-18T06:08:17.020Z,29.52
2019-05-18T06:10:45.821Z,29.82
2019-05-18T06:13:17.907Z,28.75
2019-05-18T06:15:47.619Z,26.64
2019-05-18T06:18:17.345Z,25.66
2019-05-18T06:20:52.123Z,25.54
2019-05-18T06:23:21.067Z,24.60
2019-05-18T06:25:49.930Z,25.66
2019-05-18T06:28:19.537Z,26.93
2019-05-18T06:30:50.071Z,27.95
2019-05-18T06:33:19.757Z,27.84
2019-05-18T06:35:50.337Z,28.34
2019-05-18T06:38:19.389Z,28.54
2019-05-18T06:40:48.237Z,27.34
2019-05-18T06:43:18.354Z,26.57
2019-05-18T06:45:47.232Z,25.47
2019-05-18T06:48:16.071Z,23.72
2019-05-18T06:50:45.410Z,24.01
2019-05-18T06:53:16.840Z,23.53
2019-05-18T06:55:46.241Z,22.89
2019-05-18T06:58:15.734Z,22.57
2019-05-18T07:00:45.545Z,22.71
2019-05-18T07:03:14.380Z,22.86
2019-05-18T07:05:45.452Z,22.87
2019-05-18T07:08:19.748Z,23.07
2019-05-18T07:10:49.796Z,23.63
2019-05-18T07:13:19.400Z,23.73
2019-05-18T07:15:48.996Z,23.22
2019-05-18T07:18:17.885Z,23.08
2019-05-18T07:20:48.841Z,22.36
2019-05-18T07:23:19.207Z,21.49
2019-05-18T07:25:48.434Z,20.80
2019-05-18T07:28:17.367Z,20.66
2019-05-18T07:30:46.975Z,20.58
2019-05-18T07:33:17.031Z,20.01
2019-05-18T07:35:47.184Z,19.65
2019-05-18T07:38:16.031Z,19.07
2019-05-18T07:40:44.872Z,19.00
2019-05-18T07:43:13.915Z,19.14
2019-05-18T07:45:42.747Z,18.70
2019-05-18T07:48:11.617Z,18.52
2019-05-18T07:50:40.558Z,18.51
2019-05-18T07:53:09.364Z,18.34
2019-05-18T07:55:39.375Z,18.09
2019-05-18T07:58:08.127Z,18.16
2019-05-18T08:00:38.848Z,18.19
2019-05-18T08:03:08.209Z,17.97
2019-05-18T08:05:41.923Z,18.13
2019-05-18T08:08:11.428Z,18.24
2019-05-18T08:10:43.507Z,18.35
2019-05-18T08:13:11.544Z,18.16
2019-05-18T08:15:40.410Z,18.06
2019-05-18T08:18:10.159Z,18.20
2019-05-18T08:20:40.083Z,18.36
2019-05-18T08:23:11.456Z,18.36
2019-05-18T08:25:40.352Z,18.50
2019-05-18T08:28:13.344Z,18.94
2019-05-18T08:30:43.585Z,19.22
2019-05-18T08:33:13.009Z,19.55
2019-05-18T08:35:42.589Z,19.45
2019-05-18T08:38:12.123Z,19.65
2019-05-18T08:40:44.743Z,20.15
2019-05-18T08:43:14.478Z,19.90
2019-05-18T08:45:45.719Z,19.80
2019-05-18T08:48:15.551Z,19.99
2019-05-18T08:50:44.588Z,20.22
2019-05-18T08:53:14.476Z,20.32
2019-05-18T08:55:45.797Z,20.51
2019-05-18T08:58:16.321Z,20.77
2019-05-18T09:00:45.234Z,20.82
2019-05-18T09:03:14.793Z,20.61
2019-05-18T09:05:43.714Z,20.27
2019-05-18T09:08:12.552Z,20.31
2019-05-18T09:10:41.405Z,20.70
2019-05-18T09:13:11.186Z,21.05
2019-05-18T09:15:40.604Z,21.28
2019-05-18T09:18:09.444Z,21.28
2019-05-18T09:20:38.647Z,21.61
2019-05-18T09:23:07.499Z,21.90
2019-05-18T09:25:36.315Z,22.53
2019-05-18T09:28:06.593Z,23.11
2019-05-18T09:30:35.398Z,22.86
2019-05-18T09:33:04.306Z,23.30
2019-05-18T09:35:33.267Z,23.62
2019-05-18T09:38:02.106Z,23.63
2019-05-18T09:40:30.933Z,23.42
2019-05-18T09:42:59.916Z,23.60
2019-05-18T09:45:30.741Z,23.53
2019-05-18T09:48:00.985Z,23.73
2019-05-18T09:50:30.156Z,23.23
2019-05-18T09:52:58.995Z,22.73
2019-05-18T09:55:27.811Z,22.95
2019-05-18T09:57:56.701Z,23.24
2019-05-18T10:00:25.869Z,23.76
2019-05-18T10:02:54.941Z,24.13
2019-05-18T10:05:23.853Z,24.06
2019-05-18T10:07:53.027Z,24.35
2019-05-18T10:10:21.887Z,24.54
2019-05-18T10:12:52.904Z,24.93
2019-05-18T10:15:22.632Z,25.36
2019-05-18T10:17:51.556Z,25.02
2019-05-18T10:20:21.283Z,24.39
2019-05-18T10:22:59.172Z,24.63
2019-05-18T10:25:21.043Z,24.98
2019-05-18T10:27:50.782Z,24.34
2019-05-18T10:30:19.652Z,23.80
2019-05-18T10:32:49.223Z,23.49
2019-05-18T10:35:18.397Z,23.24
2019-05-18T10:37:47.296Z,23.68
2019-05-18T10:40:16.955Z,24.11
2019-05-18T10:42:46.617Z,24.06
2019-05-18T10:45:16.011Z,24.79
2019-05-18T10:47:44.846Z,25.45
2019-05-18T10:50:13.764Z,25.43
2019-05-18T10:52:43.689Z,24.97
2019-05-18T10:55:12.518Z,25.30
2019-05-18T10:57:41.417Z,25.39
2019-05-18T11:00:11.724Z,25.47
2019-05-18T11:02:40.749Z,25.76
2019-05-18T11:05:09.589Z,25.29
2019-05-18T11:07:38.440Z,25.60
2019-05-18T11:10:07.987Z,25.11
2019-05-18T11:12:36.804Z,25.02
2019-05-18T11:15:05.690Z,24.89
2019-05-18T11:17:35.121Z,25.48
2019-05-18T11:20:05.340Z,25.49
2019-05-18T11:22:34.156Z,25.98
2019-05-18T11:25:03.578Z,26.60
2019-05-18T11:27:32.456Z,27.03
2019-05-18T11:30:01.819Z,26.77
2019-05-18T11:32:30.643Z,25.84
2019-05-18T11:35:00.195Z,25.73
2019-05-18T11:37:30.114Z,25.30
2019-05-18T11:39:58.955Z,25.10
2019-05-18T11:42:29.964Z,25.63
2019-05-18T11:44:58.935Z,26.21
2019-05-18T11:47:32.254Z,26.40
2019-05-18T11:50:01.218Z,26.66
2019-05-18T11:52:30.163Z,27.21
2019-05-18T11:55:00.833Z,27.51
2019-05-18T11:57:30.364Z,27.54
2019-05-18T11:59:59.181Z,27.21
2019-05-18T12:02:28.473Z,27.30
2019-05-18T12:04:57.272Z,27.71
2019-05-18T12:07:26.185Z,27.71
2019-05-18T12:09:55.344Z,27.77
2019-05-18T12:12:24.157Z,27.84
2019-05-18T12:14:54.336Z,27.83
2019-05-18T12:17:23.148Z,27.96
2019-05-18T12:19:53.951Z,28.16
2019-05-18T12:22:23.496Z,28.40
2019-05-18T12:24:53.237Z,28.43
2019-05-18T12:27:22.192Z,28.71
2019-05-18T12:29:53.109Z,28.96
2019-05-18T12:32:22.556Z,29.15
2019-05-18T12:34:51.367Z,28.95
2019-05-18T12:37:22.788Z,29.12
2019-05-18T12:39:53.206Z,29.43
2019-05-18T12:42:22.132Z,29.75
2019-05-18T12:44:50.979Z,29.16
2019-05-18T12:47:21.093Z,29.18
2019-05-18T12:49:49.999Z,28.87
2019-05-18T12:52:18.888Z,28.76
2019-05-18T12:54:47.686Z,29.27
2019-05-18T12:57:16.472Z,29.56
2019-05-18T12:59:45.423Z,29.46
2019-05-18T13:02:14.278Z,29.31
2019-05-18T13:04:43.708Z,29.39
2019-05-18T13:07:12.530Z,29.42
2019-05-18T13:09:43.748Z,29.33
2019-05-18T13:12:12.609Z,29.25
2019-05-18T13:14:42.000Z,29.27
2019-05-18T13:17:11.346Z,29.29
2019-05-18T13:19:40.176Z,29.26
2019-05-18T13:22:10.793Z,29.05
2019-05-18T13:24:45.392Z,28.62
2019-05-18T13:27:10.398Z,28.64
2019-05-18T13:29:40.270Z,28.25
2019-05-18T13:32:09.412Z,28.02
2019-05-18T13:34:38.307Z,27.77
2019-05-18T13:37:07.336Z,27.45
2019-05-18T13:39:36.173Z,27.62
2019-05-18T13:42:05.668Z,27.55
2019-05-18T13:44:43.853Z,27.48
2019-05-18T13:47:12.747Z,27.43
2019-05-18T13:49:41.624Z,27.23
2019-05-18T13:52:11.640Z,26.99
2019-05-18T13:54:40.620Z,26.91
2019-05-18T13:57:09.447Z,27.07
2019-05-18T13:59:38.481Z,27.19
2019-05-18T14:02:07.597Z,27.16
2019-05-18T14:04:37.684Z,26.79
2019-05-18T14:07:06.584Z,26.49
2019-05-18T14:09:35.443Z,25.97
2019-05-18T14:12:04.262Z,25.51
2019-05-18T14:14:33.085Z,25.10
2019-05-18T14:17:03.140Z,24.98
2019-05-18T14:19:32.564Z,24.75
2019-05-18T14:22:01.403Z,24.71
2019-05-18T14:24:30.252Z,24.71
2019-05-18T14:26:59.213Z,24.85
2019-05-18T14:29:28.975Z,24.89
2019-05-18T14:31:57.876Z,24.97
2019-05-18T14:34:26.712Z,25.07
2019-05-18T14:36:55.571Z,24.94
2019-05-18T14:39:24.425Z,25.06
2019-05-18T14:41:54.495Z,25.22
2019-05-18T14:44:23.403Z,25.24
2019-05-18T14:46:52.602Z,25.19
2019-05-18T14:49:22.104Z,25.33
2019-05-18T14:51:50.910Z,25.73
2019-05-18T14:54:19.814Z,26.10
2019-05-18T14:56:48.634Z,26.32
2019-05-18T14:59:18.736Z,26.62
2019-05-18T15:01:47.599Z,26.82
2019-05-18T15:04:17.134Z,26.94
2019-05-18T15:06:45.993Z,26.48
2019-05-18T15:09:16.303Z,26.50
2019-05-18T15:11:45.103Z,26.57
2019-05-18T15:14:13.952Z,26.63
2019-05-18T15:16:42.942Z,26.66
2019-05-18T15:19:11.795Z,26.59
2019-05-18T15:21:41.169Z,26.24
2019-05-18T15:24:10.061Z,26.15
2019-05-18T15:26:39.137Z,26.21
2019-05-18T15:29:08.096Z,26.15
2019-05-18T15:31:37.054Z,26.10
2019-05-18T15:34:06.368Z,25.96
2019-05-18T15:36:35.329Z,25.99
2019-05-18T15:39:05.244Z,26.16
2019-05-18T15:41:34.117Z,26.08
2019-05-18T15:44:02.931Z,25.97
2019-05-18T15:46:31.757Z,25.79
2019-05-18T15:49:00.680Z,25.52
2019-05-18T15:51:29.472Z,25.44
2019-05-18T15:53:59.540Z,25.46
2019-05-18T15:56:28.537Z,25.41
2019-05-18T15:58:57.393Z,25.42
2019-05-18T16:01:27.989Z,25.41
2019-05-18T16:03:57.556Z,25.29
2019-05-18T16:06:27.070Z,25.18
2019-05-18T16:08:56.226Z,25.23
2019-05-18T16:11:25.404Z,25.33
2019-05-18T16:13:55.049Z,25.41
2019-05-18T16:16:24.560Z,25.44
2019-05-18T16:18:55.091Z,25.36
2019-05-18T16:22:27.208Z,25.43
2019-05-18T16:24:56.123Z,25.57
2019-05-18T16:27:24.942Z,25.62
2019-05-18T16:29:54.829Z,25.68
2019-05-18T16:32:23.814Z,25.71
2019-05-18T16:34:53.291Z,25.60
2019-05-18T16:37:22.230Z,25.50
2019-05-18T16:39:51.075Z,25.47
2019-05-18T16:42:20.011Z,25.45
2019-05-18T16:44:49.490Z,25.51
2019-05-18T16:47:19.832Z,25.47
2019-05-18T16:49:50.701Z,25.45
2019-05-18T16:52:20.736Z,25.32
2019-05-18T16:54:50.605Z,25.18
2019-05-18T16:57:19.436Z,25.02
2019-05-18T16:59:48.481Z,24.84
2019-05-18T17:02:30.773Z,24.72
2019-05-18T17:04:50.461Z,24.57
2019-05-18T17:07:19.464Z,24.41
2019-05-18T17:09:48.343Z,24.32
2019-05-18T17:12:17.395Z,24.36
2019-05-18T17:14:46.307Z,24.38
2019-05-18T17:17:15.097Z,24.42
2019-05-18T17:19:43.956Z,24.32
2019-05-18T17:22:12.825Z,24.21
2019-05-18T17:24:41.914Z,24.02
2019-05-18T17:27:13.887Z,23.82
2019-05-18T17:29:43.720Z,23.76
2019-05-18T17:32:12.611Z,23.70
2019-05-18T17:34:41.397Z,23.66
2019-05-18T17:37:10.829Z,23.64
2019-05-18T17:39:40.374Z,23.61
2019-05-18T17:42:09.175Z,23.52
2019-05-18T17:44:38.826Z,23.50
2019-05-18T17:47:07.694Z,23.46
2019-05-18T17:49:36.576Z,23.36
2019-05-18T17:52:05.430Z,23.20
2019-05-18T17:54:36.071Z,23.13
2019-05-18T17:57:08.446Z,23.14
2019-05-18T17:59:33.768Z,23.06
2019-05-18T18:02:02.977Z,22.97
2019-05-18T18:04:32.610Z,22.89
2019-05-18T18:07:01.409Z,22.78
2019-05-18T18:09:30.255Z,22.71
2019-05-18T18:11:59.069Z,22.71
2019-05-18T18:14:27.937Z,22.62
2019-05-18T18:16:57.449Z,22.55
2019-05-18T18:19:26.397Z,22.49
2019-05-18T18:21:55.814Z,22.46
2019-05-18T18:24:24.795Z,22.39
2019-05-18T18:26:53.764Z,22.34
2019-05-18T18:29:22.601Z,22.23
2019-05-18T18:31:51.797Z,22.07
2019-05-18T18:34:20.612Z,21.92
2019-05-18T18:36:49.486Z,21.79
2019-05-18T18:39:18.536Z,21.76
2019-05-18T18:41:47.569Z,21.73
2019-05-18T18:44:16.491Z,21.61
2019-05-18T18:46:45.374Z,21.53
2019-05-18T18:49:14.205Z,21.46
2019-05-18T18:51:43.067Z,21.39
2019-05-18T18:54:12.782Z,21.35
2019-05-18T18:56:41.224Z,21.25
2019-05-18T18:59:12.607Z,21.19
2019-05-18T19:01:42.116Z,21.05
2019-05-18T19:04:11.888Z,20.97
2019-05-18T19:06:40.820Z,20.92
2019-05-18T19:09:09.699Z,20.78
2019-05-18T19:11:38.551Z,20.66
2019-05-18T19:14:08.176Z,20.58
2019-05-18T19:16:38.120Z,20.51
2019-05-18T19:19:08.751Z,20.50
2019-05-18T19:21:38.155Z,20.42
2019-05-18T19:24:07.464Z,20.30
2019-05-18T19:26:36.327Z,20.22
2019-05-18T19:29:05.236Z,20.14
2019-05-18T19:31:35.023Z,20.10
2019-05-18T19:34:03.991Z,19.97
2019-05-18T19:36:32.953Z,19.94
2019-05-18T19:39:01.970Z,19.90
2019-05-18T19:41:30.644Z,19.89
2019-05-18T19:43:59.513Z,19.85
2019-05-18T19:46:28.359Z,19.78
2019-05-18T19:48:57.273Z,19.69
2019-05-18T19:51:27.447Z,19.66
2019-05-18T19:53:56.760Z,19.62
2019-05-18T19:56:25.622Z,19.55
2019-05-18T19:58:54.429Z,19.50
2019-05-18T20:01:23.256Z,19.47
2019-05-18T20:03:52.108Z,19.44
2019-05-18T20:06:21.066Z,19.37
2019-05-18T20:08:50.598Z,19.30
2019-05-18T20:11:20.293Z,19.25
2019-05-18T20:13:49.984Z,19.25
2019-05-18T20:16:19.594Z,19.22
2019-05-18T20:31:18.212Z,18.94
2019-05-18T20:33:49.918Z,18.87
2019-05-18T20:36:26.564Z,18.83
2019-05-18T20:39:13.012Z,18.77
2019-05-18T20:41:48.370Z,18.70
2019-05-18T20:44:18.061Z,18.66
2019-05-18T20:47:02.414Z,18.63
2019-05-18T20:49:32.354Z,18.61
2019-05-18T20:55:11.518Z,18.56
2019-05-18T20:57:52.006Z,18.50
2019-05-18T21:00:23.063Z,18.45
2019-05-18T21:02:53.372Z,18.36
2019-05-18T21:05:43.166Z,18.24
2019-05-18T21:32:13.965Z,17.85
2019-05-18T21:34:42.869Z,17.85
2019-05-18T21:37:11.779Z,17.82
2019-05-18T21:39:40.636Z,17.81
2019-05-18T21:42:10.096Z,17.78
2019-05-18T21:44:40.584Z,17.74
2019-05-18T21:47:09.446Z,17.68
2019-05-18T21:49:38.363Z,17.65
2019-05-18T21:52:08.140Z,17.64
2019-05-18T21:54:37.008Z,17.62
2019-05-18T21:57:05.833Z,17.61
2019-05-18T21:59:34.647Z,17.60
2019-05-18T22:02:03.523Z,17.55
2019-05-18T22:04:32.407Z,17.50
2019-05-18T22:07:02.879Z,17.46
2019-05-18T22:09:33.700Z,17.45
2019-05-18T22:12:03.882Z,17.44
2019-05-18T22:14:32.663Z,17.38
2019-05-18T22:17:03.190Z,17.35
2019-05-18T22:19:32.635Z,17.27
2019-05-18T22:22:02.200Z,17.21
2019-05-18T22:24:31.037Z,17.18
2019-05-18T22:27:01.150Z,17.14
2019-05-18T22:29:30.117Z,17.13
2019-05-18T22:32:00.568Z,17.12
2019-05-18T22:34:30.684Z,17.10
2019-05-18T22:37:01.846Z,17.09
2019-05-18T22:39:31.487Z,17.07
2019-05-18T22:42:00.901Z,17.03
2019-05-18T22:44:30.037Z,17.03
2019-05-18T22:47:00.191Z,17.00
2019-05-18T22:49:30.704Z,17.00
2019-05-18T22:52:00.395Z,17.00
2019-05-18T22:54:30.989Z,16.99
2019-05-18T22:57:00.317Z,16.98
2019-05-18T22:59:29.201Z,16.98
2019-05-18T23:01:58.150Z,16.99
2019-05-18T23:04:27.455Z,16.97
2019-05-18T23:06:57.024Z,16.97
2019-05-18T23:09:26.080Z,16.94
2019-05-18T23:11:54.907Z,16.92
2019-05-18T23:14:23.805Z,16.89
2019-05-18T23:16:52.596Z,16.86
2019-05-18T23:19:21.448Z,16.78
2019-05-18T23:21:50.379Z,16.75
2019-05-18T23:24:19.201Z,16.70
2019-05-18T23:26:48.559Z,16.65
2019-05-18T23:29:17.374Z,16.61
2019-05-18T23:31:46.196Z,16.52
2019-05-18T23:34:15.028Z,16.50
2019-05-18T23:36:43.912Z,16.44
2019-05-18T23:39:12.707Z,16.40
2019-05-18T23:41:43.839Z,16.37
2019-05-18T23:44:12.728Z,16.36
2019-05-18T23:46:41.597Z,16.34
2019-05-18T23:49:11.335Z,16.31
2019-05-18T23:51:39.374Z,16.39
2019-05-18T23:54:09.752Z,16.31
2019-05-18T23:56:38.572Z,16.26
2019-05-18T23:59:07.428Z,16.16
